Terminal Aerodrome Forecast
Issued by NWS

Home | Current Version | Previous Version | Graphics & Text | Print | Product List | Glossary On
Versions: 1 2 3 4 5 6 7 8 9 10 11 12 13 14 15 16 17 18 19 20
000
FTUS43 KMPX 200800 AAA
TAFAXN
TAF AMD
KAXN 200816Z 2008/2106 12002KT 6SM BR SKC
     FM201000 12003KT 2SM BR SCT003 SCT250
      TEMPO 2011/2012 1/2SM FG BKN002
     FM201400 14007KT P6SM SCT250
     FM210100 12010KT P6SM BKN070 PROB30 2101/2106 4SM TSRA
      OVC050CB=

USA.gov is the U.S. government's official web portal to all federal, state and local government web resources and services.